Latest Weather Observations for Tuggeranong

IDN60801

Issued at 10:04 pm EDT Friday 27 February 2015 (issued every 30 minutes, with the page automatically refreshed every 10 minutes)

About weather observations | Map of weather stations | Latest weather observations for NSW | Other Formats
Station Details ID: 070339 Name: TUGGERANONG (ISABELLA PLAINS) AWS Lat: -35.42 Lon: 149.09 Height: 586.7 m
Data from the previous 72 hours. | See also: Recent months at Tuggeranong
Date/Time
EDT
Temp
°C
App
Temp
°C
Dew
Point
Rel
Hum
%
Delta-T
°C
Wind Press
QNH
hPa
Press
MSL
hPa
Rain
since 9 am
mm
Dir
 
Spd
km/h
Gust
km/h
Spd
kts
Gust
kts
27/10:00pm 21.3 20.8 15.8 71 3.4 E 13 19 7 10 1011.5 1008.7 0.0
27/09:30pm 21.7 20.3 14.6 64 4.3 ENE 15 20 8 11 1011.1 1008.3 0.0
27/09:00pm 19.9 19.4 11.9 60 4.6 E 6 9 3 5 1010.7 1007.8 0.0
27/08:30pm 20.5 20.8 10.9 54 5.4 CALM 0 0 0 0 1010.3 1007.4 0.0
27/08:00pm 22.5 21.8 8.6 41 7.6 N 2 6 1 3 1009.8 1007.0 0.0
27/07:30pm 25.8 24.3 8.3 33 9.7 NNW 6 7 3 4 1009.4 1006.6 0.0
27/07:00pm 26.9 25.2 8.4 31 10.3 N 7 11 4 6 1009.3 1006.5 0.0
27/06:30pm 27.3 24.7 7.7 29 10.8 NW 11 17 6 9 1009.1 1006.2 0.0
27/06:00pm 27.7 26.4 10.0 33 10.2 W 7 9 4 5 1008.9 1006.0 0.0
27/05:30pm 27.4 25.6 11.0 36 9.6 NNW 11 17 6 9 1008.9 1006.0 0.0
27/05:00pm 27.8 25.9 10.5 34 10.0 WNW 11 22 6 12 1008.9 1006.0 0.0
27/04:30pm 27.9 25.9 11.5 36 9.7 WNW 13 24 7 13 1009.0 1006.1 0.0
27/04:00pm 27.4 25.6 12.2 39 9.0 W 13 24 7 13 1009.3 1006.5 0.0
27/03:30pm 27.3 25.9 13.3 42 8.5 WSW 13 19 7 10 1009.5 1006.7 0.0
27/03:00pm 26.0 25.3 13.2 45 7.7 NNW 9 20 5 11 1009.9 1007.1 0.0
27/02:30pm 26.2 25.1 13.0 44 7.9 NW 11 20 6 11 1010.4 1007.5 0.0
27/02:00pm 25.1 24.9 13.6 49 6.9 WSW 7 20 4 11 1010.9 1008.1 0.0
27/01:30pm 24.1 23.0 13.0 50 6.6 N 11 20 6 11 1011.3 1008.5 0.0
27/01:00pm 23.7 23.4 14.4 56 5.6 NW 9 15 5 8 1011.8 1009.0 0.0
27/12:30pm 22.4 21.8 13.5 57 5.3 NNW 9 13 5 7 1012.4 1009.6 0.0
27/12:00pm 20.9 20.2 13.1 61 4.6 NNW 9 15 5 8 1012.8 1010.0 0.0
27/11:30am 21.2 21.4 14.1 64 4.2 W 6 13 3 7 1013.2 1010.4 0.0
27/11:00am 19.9 19.3 13.4 66 3.8 NW 9 13 5 7 1013.2 1010.4 0.0
27/10:30am 18.8 18.7 13.9 73 2.9 NW 7 13 4 7 1013.3 1010.5 0.0
27/10:00am 18.0 19.4 14.3 79 2.2 CALM 0 9 0 5 1013.1 1010.3 0.0
27/09:30am 17.3 17.4 13.8 80 2.0 W 6 7 3 4 1013.2 1010.4 0.0
27/09:00am 16.6 17.9 14.1 85 1.5 CALM 0 4 0 2 1012.9 1010.1 0.6
27/08:30am 15.5 16.9 14.4 93 0.6 CALM 0 0 0 0 1013.0 1010.2 0.6
27/08:00am 14.5 15.8 14.2 98 0.2 CALM 0 0 0 0 1012.9 1010.1 0.6
27/07:30am 14.0 15.3 14.0 100 0.0 CALM 0 0 0 0 1012.7 1009.9 0.6
27/07:00am 13.3 14.3 13.3 100 0.0 CALM 0 7 0 4 1012.5 1009.7 0.6
27/06:30am 12.4 13.1 12.2 99 0.1 CALM 0 0 0 0 1012.2 1009.3 0.6
27/06:00am 13.0 13.9 12.8 99 0.1 CALM 0 0 0 0 1011.9 1009.1 0.6
27/05:30am 13.0 13.1 12.8 99 0.1 ENE 4 6 2 3 1011.7 1008.9 0.6
27/05:00am 12.6 13.3 12.3 98 0.2 CALM 0 0 0 0 1011.6 1008.8 0.6
27/04:30am 13.5 14.4 12.9 96 0.3 CALM 0 0 0 0 1011.6 1008.8 0.6
27/04:00am 13.7 14.3 13.2 97 0.3 ENE 2 7 1 4 1011.8 1009.0 0.6
27/03:30am 14.0 15.0 13.2 95 0.5 CALM 0 0 0 0 1011.8 1009.0 0.6
27/03:00am 14.4 15.5 13.4 94 0.6 CALM 0 0 0 0 1011.8 1009.0 0.6
27/02:30am 15.1 16.1 13.3 89 1.0 CALM 0 0 0 0 1011.9 1009.1 0.6
27/02:00am 16.0 17.1 13.5 85 1.4 CALM 0 0 0 0 1012.1 1009.2 0.6
27/01:30am 17.0 18.2 13.9 82 1.8 CALM 0 6 0 3 1012.4 1009.6 0.6
27/01:00am 17.4 17.2 13.7 79 2.2 SSE 7 11 4 6 1012.7 1009.9 0.6
27/12:30am 17.8 18.4 14.3 80 2.1 SSE 4 7 2 4 1012.9 1010.1 0.6
27/12:00am 17.8 17.7 13.9 78 2.3 SE 7 9 4 5 1012.9 1010.1 0.6
 
Date/Time
EDT
Temp
°C
App
Temp
°C
Dew
Point
Rel
Hum
%
Delta-T
°C
Wind Press
QNH
hPa
Press
MSL
hPa
Rain
since 9 am
mm
Dir
 
Spd
km/h
Gust
km/h
Spd
kts
Gust
kts
26/11:30pm 17.3 18.6 14.2 82 1.8 CALM 0 0 0 0 1013.0 1010.2 0.6
26/11:00pm 17.3 18.1 13.8 80 2.0 E 2 6 1 3 1012.9 1010.1 0.6
26/10:30pm 17.8 18.1 13.5 76 2.5 SE 4 9 2 5 1012.9 1010.1 0.6
26/10:00pm 18.6 17.9 13.2 71 3.1 ESE 9 11 5 6 1012.4 1009.6 0.6
26/09:30pm 19.4 18.6 14.0 71 3.2 ESE 11 19 6 10 1011.8 1009.0 0.6
26/09:00pm 20.2 20.0 14.8 71 3.3 ESE 9 15 5 8 1011.2 1008.4 0.6
26/08:30pm 21.0 21.3 15.1 69 3.6 SE 7 11 4 6 1010.4 1007.5 0.2
26/08:00pm 21.4 20.9 14.8 66 4.0 SSE 11 19 6 10 1009.6 1006.8 0.2
26/07:30pm 21.7 21.2 13.9 61 4.6 SSW 9 15 5 8 1009.1 1006.2 0.2
26/07:00pm 22.9 21.0 13.1 54 5.8 SSE 15 22 8 12 1008.5 1005.6 0.2
26/06:30pm 24.3 23.9 12.9 49 6.8 SSE 7 26 4 14 1008.0 1005.2 0.2
26/06:00pm 24.0 24.6 15.8 60 5.1 NNW 7 13 4 7 1007.7 1004.8 0.2
26/05:30pm 23.0 25.2 17.5 71 3.5 NW 2 6 1 3 1007.8 1005.0 0.2
26/05:00pm 24.0 24.1 15.5 59 5.3 ESE 9 13 5 7 1007.7 1004.8 0.0
26/04:30pm 25.0 24.8 14.8 53 6.3 ESE 9 15 5 8 1007.9 1005.1 0.0
26/04:00pm 25.8 26.4 15.8 54 6.3 SE 7 13 4 7 1008.0 1005.2 0.0
26/03:30pm 25.1 25.6 15.1 53 6.2 WNW 6 13 3 7 1008.2 1005.4 0.0
26/03:00pm 24.6 25.3 15.5 57 5.6 N 6 13 3 7 1008.8 1005.9 0.0
26/02:30pm 23.1 23.2 14.4 58 5.3 NNW 7 11 4 6 1009.4 1006.6 0.0
26/02:00pm 23.1 23.4 14.9 60 5.0 NW 7 15 4 8 1009.7 1006.9 0.0
26/01:30pm 22.6 22.6 14.2 59 5.1 N 7 17 4 9 1010.1 1007.3 0.0
26/01:00pm 20.9 20.7 13.6 63 4.3 NW 7 11 4 6 1010.5 1007.6 0.0
26/12:30pm 20.2 21.3 14.6 70 3.4 WSW 2 7 1 4 1010.8 1007.9 0.0
26/12:00pm 19.4 19.5 13.8 70 3.3 S 6 9 3 5 1011.1 1008.3 0.0
26/11:30am 19.3 19.5 13.2 68 3.6 SSE 4 9 2 5 1011.5 1008.7 0.0
26/11:00am 18.8 19.4 13.0 69 3.4 WSW 2 6 1 3 1011.8 1009.0 0.0
26/10:30am 18.3 18.7 12.5 69 3.3 SE 2 6 1 3 1012.2 1009.3 0.0
26/10:00am 17.8 17.6 12.9 73 2.8 WSW 6 9 3 5 1012.2 1009.3 0.0
26/09:30am 17.4 16.9 12.1 71 3.0 WSW 6 7 3 4 1012.2 1009.3 0.0
26/09:00am 17.0 17.7 12.3 74 2.7 CALM 0 2 0 1 1012.2 1009.3 2.0
26/08:30am 16.6 16.1 11.9 74 2.6 SE 6 7 3 4 1012.1 1009.2 2.0
26/08:00am 16.2 15.4 11.8 75 2.5 E 7 9 4 5 1011.9 1009.1 2.0
26/07:30am 14.8 14.1 11.9 83 1.6 NE 7 9 4 5 1012.1 1009.2 2.0
26/07:00am 15.1 14.6 12.1 82 1.7 N 6 6 3 3 1012.2 1009.3 2.0
26/06:30am 15.1 15.4 12.1 82 1.7 ENE 2 6 1 3 1011.8 1009.0 2.0
26/06:00am 15.2 15.8 12.0 81 1.8 CALM 0 9 0 5 1011.7 1008.9 2.0
26/05:30am 15.5 15.0 11.9 79 2.0 NNE 6 7 3 4 1011.7 1008.9 2.0
26/05:00am 15.5 15.0 12.1 80 1.9 ENE 6 7 3 4 1012.1 1009.2 2.0
26/04:30am 15.5 16.2 12.1 80 1.9 CALM 0 0 0 0 1012.4 1009.6 2.0
26/04:00am 15.4 16.2 12.7 84 1.5 CALM 0 0 0 0 1012.5 1009.7 2.0
26/03:30am 15.4 16.2 12.5 83 1.6 CALM 0 0 0 0 1012.9 1010.1 2.0
26/03:00am 15.4 16.0 12.0 80 1.9 CALM 0 0 0 0 1013.2 1010.4 2.0
26/02:30am 15.4 16.1 12.3 82 1.7 CALM 0 0 0 0 1013.6 1010.8 2.0
26/02:00am 15.4 16.0 12.0 80 1.9 CALM 0 4 0 2 1014.1 1011.3 2.0
26/01:30am 15.4 14.9 12.0 80 1.9 NNE 6 7 3 4 1014.2 1011.4 2.0
26/01:00am 15.5 15.3 11.9 79 2.0 NNE 4 9 2 5 1014.6 1011.8 2.0
26/12:30am 15.7 15.5 11.9 78 2.1 NE 4 7 2 4 1014.9 1012.1 2.0
26/12:00am 15.8 16.5 12.2 79 2.0 CALM 0 7 0 4 1015.1 1012.3 2.0
 
Date/Time
EDT
Temp
°C
App
Temp
°C
Dew
Point
Rel
Hum
%
Delta-T
°C
Wind Press
QNH
hPa
Press
MSL
hPa
Rain
since 9 am
mm
Dir
 
Spd
km/h
Gust
km/h
Spd
kts
Gust
kts
25/11:30pm 15.8 16.0 12.0 78 2.1 NE 2 7 1 4 1015.4 1012.7 2.0
25/11:00pm 16.0 15.4 12.2 78 2.1 NNE 7 11 4 6 1015.7 1012.9 2.0
25/10:30pm 16.1 14.7 12.3 78 2.1 ENE 11 15 6 8 1015.7 1012.9 2.0
25/10:00pm 16.3 14.6 12.3 77 2.3 ENE 13 19 7 10 1015.7 1012.9 2.0
25/09:30pm 16.4 15.3 12.0 75 2.5 ENE 9 17 5 9 1015.5 1012.8 2.0
25/09:00pm 16.7 15.3 12.3 75 2.5 E 11 19 6 10 1015.4 1012.7 2.0
25/08:30pm 17.0 15.6 12.1 73 2.8 E 11 19 6 10 1015.3 1012.5 2.0
25/08:00pm 17.3 15.5 12.2 72 2.9 E 13 20 7 11 1015.3 1012.5 2.0
25/07:30pm 17.7 15.6 12.4 71 3.0 E 15 24 8 13 1015.4 1012.7 2.0
25/07:00pm 18.0 16.3 12.5 70 3.1 E 13 20 7 11 1015.4 1012.7 2.0
25/06:30pm 18.7 17.1 12.7 68 3.5 E 13 20 7 11 1015.2 1012.4 2.0
25/06:00pm 19.2 17.3 12.9 67 3.6 E 15 22 8 12 1015.2 1012.4 2.0
25/05:30pm 18.7 17.1 12.9 69 3.4 E 13 17 7 9 1015.8 1013.0 2.0
25/05:00pm 18.6 17.7 13.7 73 2.9 E 11 19 6 10 1016.1 1013.3 2.0
25/04:30pm 18.8 17.7 14.3 75 2.7 ESE 13 20 7 11 1016.0 1013.2 2.0
25/04:00pm 18.0 17.4 14.5 80 2.1 E 11 15 6 8 1016.4 1013.6 2.0
25/03:30pm 17.5 17.2 14.4 82 1.8 E 9 15 5 8 1016.5 1013.7 2.0
25/03:00pm 19.1 18.2 12.6 66 3.7 E 9 15 5 8 1017.0 1014.3 0.0
25/02:30pm 19.6 18.0 12.8 65 3.9 E 13 19 7 10 1016.8 1014.0 0.0
25/02:00pm 19.9 18.7 12.7 63 4.2 E 11 19 6 10 1017.0 1014.3 0.0
25/01:30pm 20.0 18.3 12.5 62 4.3 ESE 13 19 7 10 1017.5 1014.7 0.0
25/01:00pm 20.0 19.1 12.5 62 4.3 NE 9 17 5 9 1018.0 1015.2 0.0
25/12:30pm 19.9 18.1 12.2 61 4.4 E 13 17 7 9 1018.4 1015.6 0.0
25/12:00pm 19.6 18.5 12.1 62 4.3 ESE 9 17 5 9 1018.6 1015.9 0.0
25/11:30am 20.0 18.4 12.7 63 4.2 E 13 19 7 10 1018.6 1015.9 0.0
25/11:00am 19.4 17.5 11.9 62 4.3 E 13 19 7 10 1018.9 1016.2 0.0
25/10:30am 19.8 18.1 12.6 63 4.2 E 13 20 7 11 1018.8 1016.1 0.0
25/10:00am 19.1 17.0 12.4 65 3.8 ESE 15 20 8 11 1019.0 1016.3 0.0
25/09:30am 18.3 15.6 11.6 65 3.8 ESE 17 20 9 11 1019.0 1016.3 0.0
25/09:00am 17.9 15.1 11.5 66 3.6 ESE 17 26 9 14 1019.0 1016.3 1.6
25/08:30am 18.1 16.2 11.9 67 3.5 ESE 13 19 7 10 1018.8 1016.1 1.6
25/08:00am 17.1 15.6 11.8 71 3.0 SE 11 19 6 10 1018.8 1016.1 1.6
25/07:30am 16.9 14.9 11.6 71 3.0 SE 13 19 7 10 1018.7 1016.0 1.6
25/07:00am 16.8 15.7 11.9 73 2.8 ESE 9 15 5 8 1018.4 1015.6 1.6
25/06:30am 16.9 15.4 11.8 72 2.9 ESE 11 17 6 9 1018.0 1015.2 1.6
25/06:00am 17.0 16.5 12.5 75 2.6 SSE 7 13 4 7 1017.8 1015.0 1.6
25/05:30am 17.1 16.6 12.6 75 2.6 SSE 7 11 4 6 1017.6 1014.8 1.6
25/05:00am 17.1 16.6 12.6 75 2.6 SSE 7 13 4 7 1017.5 1014.7 1.6
25/04:30am 17.1 16.2 12.6 75 2.6 S 9 13 5 7 1017.5 1014.7 1.6
25/04:00am 17.1 16.6 12.8 76 2.5 SSE 7 11 4 6 1017.5 1014.7 1.6
25/03:30am 17.0 16.1 12.7 76 2.5 SSE 9 13 5 7 1017.7 1014.9 1.6
25/03:00am 16.9 16.1 12.8 77 2.3 S 9 15 5 8 1017.7 1014.9 1.6
25/02:30am 16.9 16.1 13.0 78 2.2 S 9 17 5 9 1017.7 1014.9 1.6
25/02:00am 16.7 16.2 12.8 78 2.2 SSE 7 11 4 6 1018.0 1015.2 1.6
25/01:30am 16.7 15.9 12.8 78 2.2 S 9 13 5 7 1018.4 1015.6 1.6
25/01:00am 16.7 15.9 13.0 79 2.1 SSE 9 13 5 7 1018.7 1016.0 1.6
25/12:30am 16.5 15.7 13.0 80 2.0 SSW 9 11 5 6 1019.0 1016.3 1.6
25/12:00am 16.7 15.9 13.0 79 2.1 S 9 11 5 6 1019.3 1016.5 1.6
 
Date/Time
EDT
Temp
°C
App
Temp
°C
Dew
Point
Rel
Hum
%
Delta-T
°C
Wind Press
QNH
hPa
Press
MSL
hPa
Rain
since 9 am
mm
Dir
 
Spd
km/h
Gust
km/h
Spd
kts
Gust
kts
24/11:30pm 16.6 16.1 13.7 83 1.7 S 9 13 5 7 1019.5 1016.7 1.6
24/11:00pm 15.9 16.3 14.8 93 0.6 W 6 7 3 4 1019.8 1017.0 1.6
24/10:30pm 15.9 15.9 14.1 89 1.0 WSW 7 9 4 5 1020.1 1017.4 1.6

Other Formats:

Comma delimited format used in spreadsheet applications
http://www.bom.gov.au/fwo/IDN60801/IDN60801.94925.axf

JavaScript Object Notation format (JSON) in row-major order
http://www.bom.gov.au/fwo/IDN60801/IDN60801.94925.json